Time,TemperatureC,DewpointC,PressurehPa,WindDirection,WindDirectionDegrees,WindSpeedKMH,WindSpeedGustKMH,Humidity,HourlyPrecipMM,Conditions,Clouds,dailyrainMM,SolarRadiationWatts/m^2,UVIndex,SoftwareType,DateUTC
2023-01-29 00:04:58,14.3,10.7,1022.3,NNE,29,0.4,3.7,79,0.0,,,0.0,0,0,n/a,2023-01-28T11:04:58Z
2023-01-29 00:09:58,14.3,10.7,1022.3,NNE,25,0,1.6,79.3,0.0,,,0.0,0,0,n/a,2023-01-28T11:09:58Z
2023-01-29 00:14:57,14.2,10.8,1022.2,NNE,32,0,1.9,80,0.0,,,0.0,0,0,n/a,2023-01-28T11:14:57Z
2023-01-29 00:19:57,14.2,10.8,1022.2,NNE,32,0,1.6,80,0.0,,,0.0,0,0,n/a,2023-01-28T11:19:57Z
2023-01-29 00:24:55,14.2,10.8,1022.2,NNE,32,0,1.9,80,0.0,,,0.0,0,0,n/a,2023-01-28T11:24:55Z
2023-01-29 00:29:54,14.1,10.8,1022.1,NNE,32,0,0,80.6,0.0,,,0.0,0,0,n/a,2023-01-28T11:29:54Z
2023-01-29 00:34:56,14.1,10.9,1021.9,NNE,32,0,1.9,81,0.0,,,0.0,0,0,n/a,2023-01-28T11:34:56Z
2023-01-29 00:39:57,14,10.8,1021.9,NNE,32,0,0,81.2,0.0,,,0.0,0,0,n/a,2023-01-28T11:39:57Z
2023-01-29 00:44:57,14,11,1021.9,NNE,32,0,0,82,0.0,,,0.0,0,0,n/a,2023-01-28T11:44:57Z
2023-01-29 00:49:58,13.9,10.9,1021.9,NNE,32,0,0,82,0.0,,,0.0,0,0,n/a,2023-01-28T11:49:58Z
2023-01-29 00:54:59,13.8,10.8,1021.9,NNE,32,0,0,82,0.0,,,0.0,0,0,n/a,2023-01-28T11:54:59Z
2023-01-29 00:59:54,13.8,10.8,1021.8,NNE,32,0,0,82,0.0,,,0.0,0,0,n/a,2023-01-28T11:59:54Z
2023-01-29 01:04:55,13.7,10.8,1021.8,NNE,32,0,0,82.5,0.0,,,0.0,0,0,n/a,2023-01-28T12:04:55Z
2023-01-29 01:09:57,13.7,10.8,1021.7,NNE,32,0,0,83,0.0,,,0.0,0,0,n/a,2023-01-28T12:09:57Z
2023-01-29 01:14:59,13.7,10.8,1021.6,NNE,32,0,0,83,0.0,,,0.0,0,0,n/a,2023-01-28T12:14:59Z
2023-01-29 01:19:59,13.6,10.8,1021.6,NNE,32,0,0,83.2,0.0,,,0.0,0,0,n/a,2023-01-28T12:19:59Z
2023-01-29 01:24:55,13.6,11,1021.6,North,360,0,0,84,0.0,,,0.0,0,0,n/a,2023-01-28T12:24:55Z
2023-01-29 01:29:56,13.5,10.9,1021.6,WNW,290,0.8,3.7,84.1,0.0,,,0.0,0,0,n/a,2023-01-28T12:29:56Z
2023-01-29 01:34:58,13.3,10.8,1021.5,WNW,290,0,0,84.9,0.0,,,0.0,0,0,n/a,2023-01-28T12:34:58Z
2023-01-29 01:39:59,13.2,10.7,1021.5,WNW,290,0.2,1.9,85,0.0,,,0.0,0,0,n/a,2023-01-28T12:39:59Z
2023-01-29 01:44:54,13,10.7,1021.4,WNW,290,0.1,1.9,85.7,0.0,,,0.0,0,0,n/a,2023-01-28T12:44:54Z
2023-01-29 01:49:55,12.9,10.7,1021.4,WNW,290,0,0,86.2,0.0,,,0.0,0,0,n/a,2023-01-28T12:49:55Z
2023-01-29 01:54:58,12.9,10.7,1021.3,WNW,290,0,0,87,0.0,,,0.0,0,0,n/a,2023-01-28T12:54:58Z
2023-01-29 01:59:54,12.8,10.7,1021.1,WNW,290,0,0,87,0.0,,,0.0,0,0,n/a,2023-01-28T12:59:54Z
2023-01-29 02:04:59,12.7,10.6,1021.1,WNW,290,0,0,87,0.0,,,0.0,0,0,n/a,2023-01-28T13:04:59Z
2023-01-29 02:09:55,12.6,10.5,1021.1,WNW,290,0,0,87,0.0,,,0.0,0,0,n/a,2023-01-28T13:09:55Z
2023-01-29 02:14:55,12.6,10.7,1021.1,WNW,290,0,1.9,88,0.0,,,0.0,0,0,n/a,2023-01-28T13:14:55Z
2023-01-29 02:19:54,12.7,10.8,1021.1,WNW,290,0,0,88.8,0.0,,,0.0,0,0,n/a,2023-01-28T13:19:54Z
2023-01-29 02:24:58,12.6,10.8,1021.0,WNW,290,0,0,89,0.0,,,0.0,0,0,n/a,2023-01-28T13:24:58Z
2023-01-29 02:29:57,12.6,10.8,1020.9,WNW,290,0,1.6,89,0.0,,,0.0,0,0,n/a,2023-01-28T13:29:57Z
2023-01-29 02:34:54,12.5,10.7,1020.8,WNW,290,0.1,1.9,89,0.0,,,0.0,0,0,n/a,2023-01-28T13:34:54Z
2023-01-29 02:39:58,12.4,10.6,1020.8,WNW,290,0,0,89,0.0,,,0.0,0,0,n/a,2023-01-28T13:39:58Z
2023-01-29 02:44:58,12.3,10.5,1020.7,WNW,290,0,0,89,0.0,,,0.0,0,0,n/a,2023-01-28T13:44:58Z
2023-01-29 02:49:57,12.2,10.4,1020.7,WNW,290,0,0,89,0.0,,,0.0,0,0,n/a,2023-01-28T13:49:57Z
2023-01-29 02:54:54,12.2,10.4,1020.7,WNW,290,0,0,89.3,0.0,,,0.0,0,0,n/a,2023-01-28T13:54:54Z
2023-01-29 02:59:57,12.2,10.6,1020.6,WNW,290,0,0,90,0.0,,,0.0,0,0,n/a,2023-01-28T13:59:57Z
2023-01-29 03:04:59,12.2,10.6,1020.6,WNW,290,0,0,90,0.0,,,0.0,0,0,n/a,2023-01-28T14:04:59Z
2023-01-29 03:09:57,12.1,10.5,1020.6,WNW,290,0,0,90,0.0,,,0.0,0,0,n/a,2023-01-28T14:09:57Z
2023-01-29 03:14:58,12.1,10.5,1020.6,WNW,290,0,0,90,0.0,,,0.0,0,0,n/a,2023-01-28T14:14:58Z
2023-01-29 03:19:54,12,10.4,1020.6,WNW,290,0,0,90,0.0,,,0.0,0,0,n/a,2023-01-28T14:19:54Z
2023-01-29 03:24:57,12,10.4,1020.5,WNW,290,0,0,90,0.0,,,0.0,0,0,n/a,2023-01-28T14:24:57Z
2023-01-29 03:29:55,12,10.5,1020.4,WNW,290,0,0,90.8,0.0,,,0.0,0,0,n/a,2023-01-28T14:29:55Z
2023-01-29 03:34:57,12,10.6,1020.3,WNW,290,0,0,91,0.0,,,0.0,0,0,n/a,2023-01-28T14:34:57Z
2023-01-29 03:39:54,12,10.6,1020.3,WNW,290,0,0,91,0.0,,,0.0,0,0,n/a,2023-01-28T14:39:54Z
2023-01-29 03:44:57,12.1,10.6,1020.2,WNW,290,0,0,91,0.0,,,0.0,0,0,n/a,2023-01-28T14:44:57Z
2023-01-29 03:49:54,12.1,10.6,1020.2,WNW,290,0,0,91,0.0,,,0.0,0,0,n/a,2023-01-28T14:49:54Z
2023-01-29 03:54:57,12.1,10.6,1020.1,WNW,290,0,0,91,0.0,,,0.0,0,0,n/a,2023-01-28T14:54:57Z
2023-01-29 03:59:58,12.1,10.7,1020.2,WNW,290,0,1.6,91,0.0,,,0.0,0,0,n/a,2023-01-28T14:59:58Z
2023-01-29 04:04:55,12.2,10.7,1020.1,WNW,290,0.1,1.9,91,0.0,,,0.0,0,0,n/a,2023-01-28T15:04:55Z
2023-01-29 04:09:58,12.2,10.8,1020.1,WNW,290,0.1,1.9,91.2,0.0,,,0.0,0,0,n/a,2023-01-28T15:09:58Z
2023-01-29 04:14:56,12.2,10.8,1020.0,WNW,290,0.4,1.9,91.2,0.0,,,0.0,0,0,n/a,2023-01-28T15:14:56Z
2023-01-29 04:19:58,12.1,10.7,1020.0,WNW,290,0,0,91,0.0,,,0.0,0,0,n/a,2023-01-28T15:19:58Z
2023-01-29 04:24:59,12.1,10.7,1019.9,WNW,290,0,0,91,0.0,,,0.0,0,0,n/a,2023-01-28T15:24:59Z
2023-01-29 04:29:56,12.2,10.8,1019.9,WNW,290,0,0,91.4,0.0,,,0.0,0,0,n/a,2023-01-28T15:29:56Z
2023-01-29 04:34:57,12.2,10.9,1019.9,WNW,290,0,0,92,0.0,,,0.0,0,0,n/a,2023-01-28T15:34:57Z
2023-01-29 04:39:58,12.3,11,1019.9,WNW,290,0,0,92,0.0,,,0.0,0,0,n/a,2023-01-28T15:39:58Z
2023-01-29 04:44:59,12.4,11.1,1019.8,WNW,290,0,0,92,0.0,,,0.0,0,0,n/a,2023-01-28T15:44:59Z
2023-01-29 04:49:55,12.5,11.2,1019.7,WNW,290,0,0,92,0.0,,,0.0,0,0,n/a,2023-01-28T15:49:55Z
2023-01-29 04:54:58,12.6,11.3,1019.8,WNW,290,0,0,92,0.0,,,0.0,0,0,n/a,2023-01-28T15:54:58Z
2023-01-29 04:59:55,12.6,11.4,1019.8,WNW,290,0,0,92,0.0,,,0.0,0,0,n/a,2023-01-28T15:59:55Z
2023-01-29 05:04:59,12.8,11.5,1019.8,WNW,290,0,0,92,0.0,,,0.0,0,0,n/a,2023-01-28T16:04:59Z
2023-01-29 05:09:55,12.9,11.6,1019.7,WNW,290,0,0,92,0.0,,,0.0,0,0,n/a,2023-01-28T16:09:55Z
2023-01-29 05:14:58,12.9,11.6,1019.7,WNW,290,0,0,92,0.0,,,0.0,0,0,n/a,2023-01-28T16:14:58Z
2023-01-29 05:19:55,12.9,11.7,1019.7,WNW,290,0,0,92,0.0,,,0.0,0,0,n/a,2023-01-28T16:19:55Z
2023-01-29 05:24:57,13,11.7,1019.7,WNW,290,0,0,92,0.0,,,0.0,0,0,n/a,2023-01-28T16:24:57Z
2023-01-29 05:29:59,13,11.8,1019.6,WNW,290,0,0,92,0.0,,,0.0,0,0,n/a,2023-01-28T16:29:59Z
2023-01-29 05:34:56,13.1,11.8,1019.6,WNW,290,0,0,92,0.0,,,0.0,0,0,n/a,2023-01-28T16:34:56Z
2023-01-29 05:39:56,13.2,11.9,1019.6,WNW,290,0,0,92,0.0,,,0.0,0,0,n/a,2023-01-28T16:39:56Z
2023-01-29 05:44:54,13.3,12,1019.6,WNW,290,0,0,92,0.0,,,0.0,0,0,n/a,2023-01-28T16:44:54Z
2023-01-29 05:49:57,13.4,12.2,1019.6,WNW,290,0,0,92,0.0,,,0.0,0,0,n/a,2023-01-28T16:49:57Z
2023-01-29 05:54:55,13.5,12.3,1019.6,WNW,290,0,0,92,0.0,,,0.0,0,0,n/a,2023-01-28T16:54:55Z
2023-01-29 05:59:58,13.6,12.3,1019.6,WNW,290,0,0,92,0.0,,,0.0,0,0,n/a,2023-01-28T16:59:58Z
2023-01-29 06:04:55,13.7,12.4,1019.6,WNW,290,0,0,92,0.0,,,0.0,0,0,n/a,2023-01-28T17:04:55Z
2023-01-29 06:09:54,13.7,12.4,1019.6,WNW,290,0,0,92,0.0,,,0.0,0,0,n/a,2023-01-28T17:09:54Z
2023-01-29 06:14:54,13.7,12.5,1019.6,WNW,290,0,0,92,0.0,,,0.0,0,0,n/a,2023-01-28T17:14:54Z
2023-01-29 06:19:56,13.8,12.6,1019.6,WNW,290,0.7,4.8,92,0.0,,,0.0,0,0,n/a,2023-01-28T17:19:56Z
2023-01-29 06:24:54,14,12.7,1019.6,North,355,1,5.6,91.9,0.0,,,0.0,0,0,n/a,2023-01-28T17:24:54Z
2023-01-29 06:29:57,14.1,12.7,1019.6,NNE,33,0.9,3.7,91.5,0.0,,,0.0,0,0,n/a,2023-01-28T17:29:57Z
2023-01-29 06:34:57,14.2,12.8,1019.5,North,10,1,3.7,91,0.0,,,0.0,5,0,n/a,2023-01-28T17:34:57Z
2023-01-29 06:39:54,14.3,12.9,1019.5,SE,127,1,3.7,91,0.0,,,0.0,7,0,n/a,2023-01-28T17:39:54Z
2023-01-29 06:44:57,14.5,13,1019.4,SE,134,0,1.9,91,0.0,,,0.0,12,0,n/a,2023-01-28T17:44:57Z
2023-01-29 06:49:58,14.6,13,1019.4,SE,134,0.2,1.9,90.5,0.0,,,0.0,18,0,n/a,2023-01-28T17:49:58Z
2023-01-29 06:54:58,14.7,13.1,1019.4,SE,134,0.3,1.9,90,0.0,,,0.0,23,0,n/a,2023-01-28T17:54:58Z
2023-01-29 06:59:56,14.8,13.2,1019.4,SE,134,0,1.9,90,0.0,,,0.0,30,0,n/a,2023-01-28T17:59:56Z
2023-01-29 07:04:59,14.9,13.3,1019.3,SE,134,0.7,1.9,90,0.0,,,0.0,47,0,n/a,2023-01-28T18:04:59Z
2023-01-29 07:09:59,14.9,13.3,1019.3,SE,134,0.5,1.9,89.7,0.0,,,0.0,67,0,n/a,2023-01-28T18:09:59Z
2023-01-29 07:14:58,14.9,13.2,1019.2,SE,134,0.7,1.9,89,0.0,,,0.0,76,0,n/a,2023-01-28T18:14:58Z
2023-01-29 07:19:54,15,13.2,1019.2,SE,134,0,1.6,89,0.0,,,0.0,72,0,n/a,2023-01-28T18:19:54Z
2023-01-29 07:24:55,15.1,13.3,1019.2,WSW,242,1.3,3.7,89,0.0,,,0.0,74,0,n/a,2023-01-28T18:24:55Z
2023-01-29 07:29:56,15.2,13.4,1019.2,WSW,251,0.8,3.7,88.8,0.0,,,0.0,74,0,n/a,2023-01-28T18:29:56Z
2023-01-29 07:34:59,15.3,13.5,1019.2,WSW,251,0.6,1.9,89,0.0,,,0.0,72,0,n/a,2023-01-28T18:34:59Z
2023-01-29 07:39:56,15.4,13.4,1019.1,WSW,252,0.6,3.7,88.4,0.0,,,0.0,81,0,n/a,2023-01-28T18:39:56Z
2023-01-29 07:44:54,15.4,13.4,1019.1,West,264,0.7,3.7,88,0.0,,,0.0,72,0,n/a,2023-01-28T18:44:54Z
2023-01-29 07:49:55,15.5,13.5,1019.1,NNW,347,1.4,5.6,88,0.0,,,0.0,65,0,n/a,2023-01-28T18:49:55Z
2023-01-29 07:54:57,15.5,13.5,1019.1,NNE,30,1.2,5.6,88,0.0,,,0.0,69,0,n/a,2023-01-28T18:54:57Z
2023-01-29 07:59:54,15.6,13.6,1019.1,North,354,1.3,5.6,88,0.0,,,0.0,69,0,n/a,2023-01-28T18:59:54Z
2023-01-29 08:04:57,15.6,13.6,1019.1,NNW,339,1.6,3.7,88,0.0,,,0.0,65,0,n/a,2023-01-28T19:04:57Z
2023-01-29 08:09:56,15.7,13.7,1019.1,NNE,25,0.9,3.7,88,0.0,,,0.0,63,0,n/a,2023-01-28T19:09:56Z
2023-01-29 08:14:59,15.7,13.6,1019.1,North,350,1.2,3.7,87.4,0.0,,,0.0,70,0,n/a,2023-01-28T19:14:59Z
2023-01-29 08:19:55,15.7,13.7,1019.1,North,6,0.8,3.7,87.8,0.0,,,0.0,79,0,n/a,2023-01-28T19:19:55Z
2023-01-29 08:24:56,15.8,13.8,1019.1,NNE,14,0.6,3.7,88,0.0,,,0.0,83,0,n/a,2023-01-28T19:24:56Z
2023-01-29 08:29:58,15.8,13.8,1019.1,WNW,288,0.4,3.7,88,0.0,,,0.0,83,0.5,n/a,2023-01-28T19:29:58Z
2023-01-29 08:34:55,15.9,13.8,1019.0,WNW,288,0.6,3.7,87.5,0.0,,,0.0,100,0.5,n/a,2023-01-28T19:34:55Z
2023-01-29 08:39:57,15.9,13.8,1018.9,WNW,288,0.7,3.2,87,0.0,,,0.0,109,0.6,n/a,2023-01-28T19:39:57Z
2023-01-29 08:44:59,16,13.8,1019.0,WNW,288,0.4,3.7,87,0.0,,,0.0,111,0.6,n/a,2023-01-28T19:44:59Z
2023-01-29 08:49:55,16.1,13.8,1019.0,NW,317,2.2,5.6,86.6,0.0,,,0.0,130,0.7,n/a,2023-01-28T19:49:55Z
2023-01-29 08:54:57,16.1,13.7,1019.0,NNW,335,1.8,5.6,86,0.0,,,0.0,162,0.9,n/a,2023-01-28T19:54:57Z
2023-01-29 08:59:54,16.1,13.8,1018.9,WNW,299,1.5,5.6,86,0.0,,,0.0,251,1.2,n/a,2023-01-28T19:59:54Z
2023-01-29 09:04:58,16.3,13.9,1018.9,WNW,303,0.9,3.7,86,0.0,,,0.0,251,1.2,n/a,2023-01-28T20:04:58Z
2023-01-29 09:09:57,16.4,13.9,1018.9,WNW,285,1.1,3.7,85.1,0.0,,,0.0,186,1.1,n/a,2023-01-28T20:09:57Z
2023-01-29 09:14:54,16.5,13.9,1018.8,WNW,283,1.5,3.7,84.3,0.0,,,0.0,301,1.6,n/a,2023-01-28T20:14:54Z
2023-01-29 09:19:55,16.7,13.9,1018.7,WNW,283,1.5,5.6,84,0.0,,,0.0,311,1.7,n/a,2023-01-28T20:19:55Z
2023-01-29 09:24:56,16.8,14,1018.7,WNW,288,0.2,1.9,83.4,0.0,,,0.0,179,1.4,n/a,2023-01-28T20:24:56Z
2023-01-29 09:29:58,17,14.3,1018.7,East,100,0.5,3.7,84,0.0,,,0.0,202,1.6,n/a,2023-01-28T20:29:58Z
2023-01-29 09:34:56,17.2,14.4,1018.6,ESE,118,0.9,5.6,83.6,0.0,,,0.0,156,1.6,n/a,2023-01-28T20:34:56Z
2023-01-29 09:39:54,17.3,14.5,1018.6,SE,126,0.1,1.9,83.6,0.0,,,0.0,294,2.1,n/a,2023-01-28T20:39:54Z
2023-01-29 09:44:56,17.5,14.8,1018.6,ESE,116,2.1,5.6,84,0.0,,,0.0,294,2.2,n/a,2023-01-28T20:44:56Z
2023-01-29 09:49:58,17.7,14.9,1018.6,ESE,109,0.2,1.9,83.5,0.0,,,0.0,322,2.3,n/a,2023-01-28T20:49:58Z
2023-01-29 09:54:55,17.9,15,1018.6,ESE,108,0.2,1.9,83.3,0.0,,,0.0,341,2.5,n/a,2023-01-28T20:54:55Z
2023-01-29 09:59:56,18.2,15.3,1018.6,ESE,108,0.1,1.9,83.1,0.0,,,0.0,265,2.2,n/a,2023-01-28T20:59:56Z
2023-01-29 10:04:57,18.4,15.2,1018.5,ESE,108,0.1,1.9,81.6,0.0,,,0.0,255,2.2,n/a,2023-01-28T21:04:57Z
2023-01-29 10:09:58,18.5,15.2,1018.5,ESE,108,2,5.6,81,0.0,,,0.0,248,2.6,n/a,2023-01-28T21:09:58Z
2023-01-29 10:14:57,18.5,15.2,1018.4,SE,124,3.1,5.6,80.8,0.0,,,0.0,304,3,n/a,2023-01-28T21:14:57Z
2023-01-29 10:19:59,18.4,15,1018.3,SE,135,1.7,5.6,81,0.0,,,0.0,394,3.4,n/a,2023-01-28T21:19:59Z
2023-01-29 10:24:56,18.4,15.3,1018.2,SE,134,1.1,3.7,81.8,0.0,,,0.0,468,3.8,n/a,2023-01-28T21:24:56Z
2023-01-29 10:29:58,18.6,15.5,1018.2,SE,134,0.1,1.9,82,0.0,,,0.0,410,3.6,n/a,2023-01-28T21:29:58Z
2023-01-29 10:34:55,18.9,15.5,1018.2,SE,134,0.6,1.9,81,0.0,,,0.0,290,3.1,n/a,2023-01-28T21:34:55Z
2023-01-29 10:39:57,19.1,15.5,1018.2,South,173,0.5,3.2,79.9,0.0,,,0.0,287,2.8,n/a,2023-01-28T21:39:57Z
2023-01-29 10:44:58,19.1,15.5,1018.2,SW,236,0.6,3.7,79.4,0.0,,,0.0,323,3.1,n/a,2023-01-28T21:44:58Z
2023-01-29 10:49:59,19.3,15.8,1018.2,ESE,118,1.6,5.6,80,0.0,,,0.0,462,5.2,n/a,2023-01-28T21:49:59Z
2023-01-29 10:54:59,19.6,16.1,1018.0,SE,124,3.5,8,80,0.0,,,0.0,657,5.9,n/a,2023-01-28T21:54:59Z
2023-01-29 10:59:59,19.9,16.1,1017.9,SE,136,3.1,8,79,0.0,,,0.0,642,5.8,n/a,2023-01-28T21:59:59Z
2023-01-29 11:04:54,20.1,16.4,1017.8,SE,127,5.1,11.3,79,0.0,,,0.0,638,6.1,n/a,2023-01-28T22:04:54Z
2023-01-29 11:09:59,20.4,16.7,1017.6,SE,134,5,12.9,79.4,0.0,,,0.0,670,6.9,n/a,2023-01-28T22:09:59Z
2023-01-29 11:14:56,20.7,16.9,1017.4,SE,132,5.6,13,79,0.0,,,0.0,642,6.1,n/a,2023-01-28T22:14:56Z
2023-01-29 11:19:57,20.9,17.1,1017.3,SE,125,6.5,11.3,79,0.0,,,0.0,501,5.5,n/a,2023-01-28T22:19:57Z
2023-01-29 11:24:58,20.9,17.2,1017.2,ESE,123,2.3,7.4,79,0.0,,,0.0,466,5.6,n/a,2023-01-28T22:24:58Z
2023-01-29 11:29:57,20.9,17.1,1017.3,ESE,121,3.9,6.4,79.2,0.0,,,0.0,506,5.6,n/a,2023-01-28T22:29:57Z
2023-01-29 11:34:57,20.9,17.4,1017.3,ESE,122,5.7,11.3,80.1,0.0,,,0.0,594,6.6,n/a,2023-01-28T22:34:57Z
2023-01-29 11:39:55,21.2,17.4,1017.3,SE,126,5.8,11.3,79.4,0.0,,,0.0,661,8.1,n/a,2023-01-28T22:39:55Z
2023-01-29 11:44:59,21.3,17.6,1017.2,ESE,118,5.1,11.3,79.6,0.0,,,0.0,754,8.3,n/a,2023-01-28T22:44:59Z
2023-01-29 11:49:55,21.4,17.7,1017.1,SE,130,3.5,6.4,79.6,0.0,,,0.0,752,9,n/a,2023-01-28T22:49:55Z
2023-01-29 11:54:59,21.5,17.7,1017.0,ESE,115,2.6,8,78.8,0.0,,,0.0,881,8.7,n/a,2023-01-28T22:54:59Z
2023-01-29 11:59:55,21.7,17.9,1017.0,ESE,119,3.7,9.7,79.2,0.0,,,0.0,615,11.4,n/a,2023-01-28T22:59:55Z
2023-01-29 12:04:58,21.9,18.2,1016.9,ESE,105,2.7,9.3,79.7,0.0,,,0.0,638,11.4,n/a,2023-01-28T23:04:58Z
2023-01-29 12:09:56,22.1,18.1,1016.8,ESE,120,6.3,13,78,0.0,,,0.0,888,10.1,n/a,2023-01-28T23:09:56Z
2023-01-29 12:14:58,21.9,17.8,1016.8,SE,126,6.6,13,77.6,0.0,,,0.0,1028,10.8,n/a,2023-01-28T23:14:58Z
2023-01-29 12:19:54,22,18.2,1016.8,ESE,115,5.9,14.8,79.1,0.0,,,0.0,958,10,n/a,2023-01-28T23:19:54Z
2023-01-29 12:24:56,22.1,18.1,1016.7,SE,127,6.1,13,77.9,0.0,,,0.0,863,9.8,n/a,2023-01-28T23:24:56Z
2023-01-29 12:29:59,22.2,18.1,1016.7,ESE,121,7.7,13,77.7,0.0,,,0.0,835,9.4,n/a,2023-01-28T23:29:59Z
2023-01-29 12:34:55,22.1,18.2,1016.6,ESE,108,4,11.1,78.4,0.0,,,0.0,803,9.4,n/a,2023-01-28T23:34:55Z
2023-01-29 12:39:55,22.2,18.2,1016.6,ESE,107,4,11.3,78.4,0.0,,,0.0,911,10.2,n/a,2023-01-28T23:39:55Z
2023-01-29 12:44:57,22,18,1016.6,SE,125,7.6,14.8,77.6,0.0,,,0.0,824,9.7,n/a,2023-01-28T23:44:57Z
2023-01-29 12:49:57,21.9,18,1016.5,SE,126,7.4,14.8,78.3,0.0,,,0.0,664,9.7,n/a,2023-01-28T23:49:57Z
2023-01-29 12:54:59,21.8,18,1016.4,SE,126,5.4,13,78.9,0.0,,,0.0,984,11.2,n/a,2023-01-28T23:54:59Z
2023-01-29 12:59:54,21.9,18.1,1016.3,ESE,121,5.4,13,79.2,0.0,,,0.0,991,11.2,n/a,2023-01-28T23:59:54Z
2023-01-29 13:04:56,22,18.2,1016.2,ESE,119,4.4,14.5,79.2,0.0,,,0.0,991,11.4,n/a,2023-01-29T00:04:56Z
2023-01-29 13:09:59,22.1,18.2,1016.2,ESE,122,6,14.8,78.7,0.0,,,0.0,991,11.6,n/a,2023-01-29T00:09:59Z
2023-01-29 13:14:56,22.1,18.2,1016.2,ESE,119,6,18.5,78.7,0.0,,,0.0,997,11.5,n/a,2023-01-29T00:14:56Z
2023-01-29 13:19:57,22.3,18.3,1016.0,ESE,108,4,9.7,78.4,0.0,,,0.0,997,11.5,n/a,2023-01-29T00:19:57Z
2023-01-29 13:24:57,22.3,18.3,1016.0,ESE,103,2.9,6.4,78,0.0,,,0.0,1046,11.6,n/a,2023-01-29T00:24:57Z
2023-01-29 13:29:59,22.6,18.6,1015.9,ESE,105,4.5,14.8,78.2,0.0,,,0.0,1000,11.4,n/a,2023-01-29T00:29:59Z
2023-01-29 13:34:54,22.6,18.2,1015.8,ESE,120,6,14.8,76.3,0.0,,,0.0,1081,12,n/a,2023-01-29T00:34:54Z
2023-01-29 13:39:54,22.4,18.3,1015.8,ESE,119,5.3,13,77.4,0.0,,,0.0,1044,11.9,n/a,2023-01-29T00:39:54Z
2023-01-29 13:44:56,22.4,18.2,1015.8,ESE,115,4.5,11.3,77.4,0.0,,,0.0,1018,12,n/a,2023-01-29T00:44:56Z
2023-01-29 13:49:57,22.3,18.3,1015.7,NW,322,3.7,11.3,78.1,0.0,,,0.0,1018,11.9,n/a,2023-01-29T00:49:57Z
2023-01-29 13:54:58,22.3,18.2,1015.6,ESE,112,4.9,9.7,77.6,0.0,,,0.0,1027,11.3,n/a,2023-01-29T00:54:58Z
2023-01-29 13:59:59,22.2,18.3,1015.6,ESE,109,4.1,11.3,78.4,0.0,,,0.0,1005,11.1,n/a,2023-01-29T00:59:59Z
2023-01-29 14:04:55,22.3,18.3,1015.5,SE,124,4.5,14.8,78.1,0.0,,,0.0,970,10.8,n/a,2023-01-29T01:04:55Z
2023-01-29 14:09:59,22.2,18.2,1015.5,SE,128,6.7,14.8,78,0.0,,,0.0,819,10,n/a,2023-01-29T01:09:59Z
2023-01-29 14:14:56,22,18.1,1015.5,ESE,105,4.8,14.8,78.9,0.0,,,0.0,819,9.9,n/a,2023-01-29T01:14:56Z
2023-01-29 14:19:57,21.9,18.1,1015.5,ESE,107,4.2,13,79.1,0.0,,,0.0,810,9.5,n/a,2023-01-29T01:19:57Z
2023-01-29 14:24:57,22,18.2,1015.5,East,92,4.2,8,79.1,0.0,,,0.0,884,9.8,n/a,2023-01-29T01:24:57Z
2023-01-29 14:29:57,22,18.1,1015.5,East,86,4,13,78.6,0.0,,,0.0,884,9.8,n/a,2023-01-29T01:29:57Z
2023-01-29 14:34:56,22,18.1,1015.5,SE,125,5.9,14.5,78.3,0.0,,,0.0,849,9.3,n/a,2023-01-29T01:34:56Z
2023-01-29 14:39:58,22,18.2,1015.5,East,95,3.2,14.8,79.4,0.0,,,0.0,849,9.1,n/a,2023-01-29T01:39:58Z
2023-01-29 14:44:58,22.1,18.3,1015.5,East,93,5,11.3,78.9,0.0,,,0.0,1072,10.6,n/a,2023-01-29T01:44:58Z
2023-01-29 14:49:58,22.2,18.3,1015.4,ENE,57,4.2,8,78.7,0.0,,,0.0,1072,10.3,n/a,2023-01-29T01:49:58Z
2023-01-29 14:54:54,22.3,18.3,1015.3,ESE,113,5.3,14.8,77.8,0.0,,,0.0,1102,10.3,n/a,2023-01-29T01:54:54Z
2023-01-29 14:59:54,22.3,18.3,1015.2,NE,49,3.8,8,77.7,0.0,,,0.0,956,11.2,n/a,2023-01-29T01:59:54Z
2023-01-29 15:04:55,22.3,18.2,1015.2,ESE,114,5.6,14.8,77.4,0.0,,,0.0,1195,10.9,n/a,2023-01-29T02:04:55Z
2023-01-29 15:09:54,22.1,18.2,1015.1,ESE,122,4.8,13,78.4,0.0,,,0.0,1195,10.5,n/a,2023-01-29T02:09:54Z
2023-01-29 15:14:55,22.2,18.2,1015.1,NE,39,4.3,8,78.4,0.0,,,0.0,988,9.8,n/a,2023-01-29T02:14:55Z